createdAt,value
2022-10-03T00:00:16.738Z,8.70
2022-10-03T00:03:22.038Z,10.63
2022-10-03T00:05:56.305Z,12.27
2022-10-03T00:08:53.644Z,10.33
2022-10-03T00:11:36.290Z,10.37
2022-10-03T00:14:18.742Z,10.43
2022-10-03T00:16:49.180Z,11.30
2022-10-03T00:19:18.625Z,9.50
2022-10-03T00:22:26.549Z,8.10
2022-10-03T00:25:20.974Z,7.70
2022-10-03T00:28:07.583Z,7.00
2022-10-03T00:30:57.339Z,5.33
2022-10-03T00:33:38.613Z,6.10
2022-10-03T00:36:16.864Z,7.47
2022-10-03T00:39:22.191Z,6.57
2022-10-03T00:42:01.323Z,7.90
2022-10-03T00:44:38.090Z,9.10
2022-10-03T00:47:26.126Z,7.27
2022-10-03T00:50:08.136Z,10.27
2022-10-03T00:52:57.825Z,8.30
2022-10-03T00:55:49.268Z,8.30
2022-10-03T00:58:43.278Z,7.50
2022-10-03T01:01:27.627Z,6.73
2022-10-03T01:04:03.643Z,6.77
2022-10-03T01:06:43.686Z,6.37
2022-10-03T01:09:52.816Z,6.80
2022-10-03T01:12:37.346Z,6.90
2022-10-03T01:15:03.978Z,10.33
2022-10-03T01:18:01.706Z,9.77
2022-10-03T01:21:01.094Z,8.90
2022-10-03T01:23:40.705Z,7.47
2022-10-03T01:26:32.344Z,7.07
2022-10-03T01:29:52.953Z,9.37
2022-10-03T01:32:43.162Z,8.30
2022-10-03T01:35:22.613Z,12.03
2022-10-03T01:38:20.407Z,9.43
2022-10-03T01:41:04.036Z,8.57
2022-10-03T01:43:55.603Z,13.57
2022-10-03T01:46:33.798Z,10.43
2022-10-03T01:49:02.726Z,10.83
2022-10-03T01:51:50.278Z,12.43
2022-10-03T01:54:42.676Z,14.37
2022-10-03T01:57:35.796Z,14.03
2022-10-03T02:00:17.754Z,12.83
2022-10-03T02:03:16.889Z,11.43
2022-10-03T02:06:06.761Z,14.63
2022-10-03T02:09:00.871Z,15.80
2022-10-03T02:11:50.865Z,10.40
2022-10-03T02:14:34.499Z,11.03
2022-10-03T02:17:30.427Z,11.77
2022-10-03T02:20:09.055Z,11.27
2022-10-03T02:22:45.965Z,13.07
2022-10-03T02:25:40.852Z,14.73
2022-10-03T02:28:28.362Z,9.50
2022-10-03T02:31:21.489Z,14.93
2022-10-03T02:34:16.463Z,9.30
2022-10-03T02:36:52.513Z,10.63
2022-10-03T02:39:45.935Z,16.60
2022-10-03T02:42:31.537Z,13.33
2022-10-03T02:45:16.648Z,18.30
2022-10-03T02:48:34.069Z,10.47
2022-10-03T02:51:35.829Z,19.30
2022-10-03T02:54:03.272Z,12.73
2022-10-03T02:56:49.783Z,22.50
2022-10-03T02:59:53.480Z,16.87
2022-10-03T03:02:56.252Z,18.13
2022-10-03T03:05:58.151Z,13.00
2022-10-03T03:08:50.110Z,12.70
2022-10-03T03:11:47.551Z,14.47
2022-10-03T03:14:42.255Z,12.80
2022-10-03T03:17:31.016Z,15.37
2022-10-03T03:20:31.543Z,15.63
2022-10-03T03:23:49.298Z,12.60
2022-10-03T03:26:31.014Z,21.87
2022-10-03T03:29:16.279Z,19.37
2022-10-03T03:32:03.229Z,17.17
2022-10-03T03:34:51.085Z,17.60
2022-10-03T03:37:34.565Z,19.77
2022-10-03T03:40:04.378Z,11.87
2022-10-03T03:42:57.216Z,15.40
2022-10-03T03:45:30.858Z,13.83
2022-10-03T03:48:26.884Z,11.83
2022-10-03T03:51:33.073Z,15.30
2022-10-03T03:54:05.541Z,13.03
2022-10-03T03:56:45.899Z,13.37
2022-10-03T03:59:33.678Z,15.60
2022-10-03T04:02:15.503Z,10.43
2022-10-03T04:04:45.380Z,16.87
2022-10-03T04:07:22.087Z,14.67
2022-10-03T04:09:59.682Z,14.07
2022-10-03T04:12:31.939Z,9.67
2022-10-03T04:15:11.116Z,10.63
2022-10-03T04:18:24.908Z,9.40
2022-10-03T04:21:07.221Z,9.87
2022-10-03T04:23:33.931Z,12.33
2022-10-03T04:26:26.910Z,10.63
2022-10-03T04:29:31.291Z,10.93
2022-10-03T04:32:11.460Z,11.97
2022-10-03T04:34:51.377Z,9.43
2022-10-03T04:37:38.357Z,10.53
2022-10-03T04:40:19.739Z,7.73
2022-10-03T04:43:11.881Z,15.97
2022-10-03T04:45:42.632Z,15.40
2022-10-03T04:48:47.013Z,8.43
2022-10-03T04:51:37.941Z,8.43
2022-10-03T04:54:33.791Z,8.17
2022-10-03T04:57:26.480Z,16.37
2022-10-03T05:00:20.534Z,9.93
2022-10-03T05:03:15.336Z,8.80
2022-10-03T05:05:59.692Z,10.90
2022-10-03T05:09:01.697Z,11.17
2022-10-03T05:11:47.935Z,11.97
2022-10-03T05:14:24.389Z,10.87
2022-10-03T05:17:04.678Z,18.23
2022-10-03T05:19:41.545Z,10.90
2022-10-03T05:22:23.626Z,12.17
2022-10-03T05:25:10.387Z,11.47
2022-10-03T05:27:40.162Z,9.07
2022-10-03T05:30:22.526Z,10.80
2022-10-03T05:33:13.929Z,6.50
2022-10-03T05:36:23.671Z,7.20
2022-10-03T05:39:26.762Z,6.27
2022-10-03T05:42:23.158Z,4.60
2022-10-03T05:45:31.695Z,4.83
2022-10-03T05:48:32.720Z,5.23
2022-10-03T05:51:20.650Z,6.73
2022-10-03T05:54:08.854Z,6.60
2022-10-03T05:57:19.923Z,5.87
2022-10-03T06:00:02.463Z,11.87
2022-10-03T06:02:54.414Z,13.13
2022-10-03T06:05:46.366Z,8.83
2022-10-03T06:08:13.034Z,8.67
2022-10-03T06:11:08.555Z,7.90
2022-10-03T06:13:54.037Z,10.37
2022-10-03T06:17:09.983Z,8.73
2022-10-03T06:19:49.737Z,8.07
2022-10-03T06:23:10.698Z,7.57
2022-10-03T06:26:06.946Z,9.17
2022-10-03T06:28:51.235Z,6.47
2022-10-03T06:31:40.230Z,8.07
2022-10-03T06:34:36.302Z,6.73
2022-10-03T06:37:31.071Z,8.50
2022-10-03T06:40:26.073Z,11.23
2022-10-03T06:43:01.808Z,13.10
2022-10-03T06:45:50.669Z,13.70
2022-10-03T06:48:25.018Z,16.53
2022-10-03T06:51:08.311Z,20.63
2022-10-03T06:53:43.973Z,17.93
2022-10-03T06:56:53.524Z,16.03
2022-10-03T06:59:30.711Z,14.43
2022-10-03T07:02:03.430Z,18.50
2022-10-03T07:04:47.847Z,13.23
2022-10-03T07:07:45.819Z,15.07
2022-10-03T07:10:41.142Z,10.63
2022-10-03T07:13:15.868Z,8.83
2022-10-03T07:16:27.831Z,17.13
2022-10-03T07:19:06.227Z,15.80
2022-10-03T07:22:08.479Z,14.57
2022-10-03T07:25:02.734Z,13.50
2022-10-03T07:27:51.244Z,12.10
2022-10-03T07:30:26.588Z,12.20
2022-10-03T07:33:33.392Z,11.30
2022-10-03T07:36:51.914Z,11.30
2022-10-03T07:39:52.808Z,11.20
2022-10-03T07:42:22.338Z,11.93
2022-10-03T07:45:01.140Z,9.97
2022-10-03T07:47:42.882Z,10.17
2022-10-03T07:50:28.460Z,13.17
2022-10-03T07:53:21.085Z,8.50
2022-10-03T07:56:10.062Z,13.20
2022-10-03T07:58:52.045Z,15.60
2022-10-03T08:01:37.206Z,9.43
2022-10-03T08:04:23.111Z,12.37
2022-10-03T08:07:20.735Z,9.43
2022-10-03T08:10:06.180Z,7.10
2022-10-03T08:12:40.374Z,6.50
2022-10-03T08:15:21.521Z,8.10
2022-10-03T08:18:08.507Z,8.83
2022-10-03T08:20:44.175Z,4.83
2022-10-03T08:23:36.211Z,8.47
2022-10-03T08:26:23.498Z,5.83
2022-10-03T08:29:12.322Z,5.03
2022-10-03T08:32:11.644Z,9.37
2022-10-03T08:34:47.503Z,7.20
2022-10-03T08:37:38.684Z,10.03
2022-10-03T08:40:53.546Z,6.43
2022-10-03T08:43:50.421Z,6.60
2022-10-03T08:47:09.532Z,6.97
2022-10-03T08:49:45.459Z,7.63
2022-10-03T08:52:33.402Z,7.13
2022-10-03T08:55:35.937Z,7.87
2022-10-03T08:58:24.755Z,4.80
2022-10-03T09:01:19.084Z,6.40
2022-10-03T09:04:07.120Z,6.20
2022-10-03T09:10:16.354Z,10.33
2022-10-03T09:12:52.724Z,4.80
2022-10-03T09:15:41.778Z,9.30
2022-10-03T09:18:42.461Z,6.00
2022-10-03T09:21:45.882Z,6.70
2022-10-03T09:24:42.213Z,8.70
2022-10-03T09:27:33.793Z,7.67
2022-10-03T09:30:15.847Z,5.27
2022-10-03T09:33:20.793Z,6.03
2022-10-03T09:36:02.082Z,8.10
2022-10-03T09:38:43.845Z,6.20
2022-10-03T09:41:40.007Z,5.10
2022-10-03T09:44:19.864Z,3.67
2022-10-03T09:47:17.425Z,7.20
2022-10-03T09:49:55.076Z,4.88
2022-10-03T09:52:22.790Z,5.87
2022-10-03T09:55:06.688Z,4.85
2022-10-03T09:57:56.074Z,7.33
2022-10-03T10:00:34.670Z,5.97
2022-10-03T10:03:05.859Z,6.60
2022-10-03T10:05:49.412Z,6.47
2022-10-03T10:09:08.171Z,5.80
2022-10-03T10:11:54.833Z,5.18
2022-10-03T10:14:53.735Z,4.43
2022-10-03T10:17:40.131Z,5.97
2022-10-03T10:20:37.939Z,6.55
2022-10-03T10:23:19.859Z,7.15
2022-10-03T10:26:06.091Z,5.07
2022-10-03T10:28:57.829Z,5.82
2022-10-03T10:31:43.927Z,4.32
2022-10-03T10:34:31.984Z,8.70
2022-10-03T10:37:01.791Z,3.80
2022-10-03T10:39:59.853Z,6.22
2022-10-03T10:42:41.843Z,6.00
2022-10-03T10:45:14.172Z,3.53
2022-10-03T10:48:17.044Z,7.70
2022-10-03T10:51:05.998Z,6.15
2022-10-03T10:53:54.276Z,6.32
2022-10-03T10:56:27.496Z,7.80
2022-10-03T10:59:22.449Z,4.30
2022-10-03T11:02:07.798Z,6.80
2022-10-03T11:04:34.831Z,6.80
2022-10-03T11:07:24.408Z,7.63
2022-10-03T11:10:13.013Z,7.30
2022-10-03T11:12:56.272Z,6.45
2022-10-03T11:15:43.349Z,8.60
2022-10-03T11:18:16.188Z,6.18
2022-10-03T11:21:04.618Z,6.35
2022-10-03T11:23:53.043Z,4.60
2022-10-03T11:26:57.650Z,2.97
2022-10-03T11:30:03.206Z,5.38
2022-10-03T11:32:48.086Z,6.15
2022-10-03T11:35:43.269Z,7.07
2022-10-03T11:38:30.184Z,7.13
2022-10-03T11:40:56.847Z,5.30
2022-10-03T11:43:50.920Z,12.20
2022-10-03T11:46:46.045Z,6.53
2022-10-03T11:49:36.085Z,5.00
2022-10-03T11:52:02.773Z,8.98
2022-10-03T11:54:35.806Z,6.40
2022-10-03T11:57:09.153Z,7.15
2022-10-03T11:59:48.137Z,5.20
2022-10-03T12:02:28.917Z,6.10
2022-10-03T12:05:02.411Z,16.43
2022-10-03T12:07:58.690Z,26.80
2022-10-03T12:11:06.251Z,16.70
2022-10-03T12:14:01.609Z,6.47
2022-10-03T12:17:17.864Z,5.13
2022-10-03T12:20:18.169Z,8.07
2022-10-03T12:22:56.592Z,7.60
2022-10-03T12:25:26.460Z,6.70
2022-10-03T12:28:01.147Z,4.57
2022-10-03T12:30:41.218Z,6.10
2022-10-03T12:33:40.322Z,7.83
2022-10-03T12:36:15.870Z,2.40
2022-10-03T12:39:15.563Z,4.93
2022-10-03T12:42:16.526Z,2.73
2022-10-03T12:44:52.586Z,3.53
2022-10-03T12:47:54.888Z,4.93
2022-10-03T12:50:40.084Z,3.80
2022-10-03T12:53:16.227Z,5.43
2022-10-03T12:55:52.174Z,5.10
2022-10-03T12:58:43.261Z,2.95
2022-10-03T13:01:12.855Z,3.17
2022-10-03T13:04:13.062Z,2.70
2022-10-03T13:07:13.221Z,3.80
2022-10-03T13:10:18.283Z,3.73
2022-10-03T13:13:02.591Z,2.83
2022-10-03T13:15:49.104Z,4.40
2022-10-03T13:18:26.750Z,3.03
2022-10-03T13:21:21.417Z,3.37
2022-10-03T13:24:01.081Z,4.00
2022-10-03T13:26:58.694Z,2.93
2022-10-03T13:29:31.829Z,5.20
2022-10-03T13:32:07.518Z,5.60
2022-10-03T13:35:21.158Z,5.30
2022-10-03T13:38:09.844Z,2.27
2022-10-03T13:40:43.373Z,1.97
2022-10-03T13:43:13.844Z,3.70
2022-10-03T13:45:45.096Z,3.63
2022-10-03T13:48:20.009Z,1.80
2022-10-03T13:51:02.504Z,3.10
2022-10-03T13:53:48.271Z,3.07
2022-10-03T13:56:39.699Z,5.60
2022-10-03T13:59:15.558Z,3.80
2022-10-03T14:02:10.395Z,3.77
2022-10-03T14:04:46.768Z,3.73
2022-10-03T14:07:13.593Z,4.43
2022-10-03T14:09:49.654Z,3.20
2022-10-03T14:12:54.896Z,4.40
2022-10-03T14:15:25.855Z,3.67
2022-10-03T14:18:20.425Z,6.30
2022-10-03T14:21:18.216Z,2.50
2022-10-03T14:23:56.956Z,2.97
2022-10-03T14:26:38.527Z,2.30
2022-10-03T14:29:17.417Z,3.67
2022-10-03T14:32:22.570Z,7.07
2022-10-03T14:35:17.679Z,4.23
2022-10-03T14:38:06.998Z,6.43
2022-10-03T14:40:42.526Z,6.03
2022-10-03T14:43:18.135Z,3.60
2022-10-03T14:45:53.537Z,4.50
2022-10-03T14:48:37.427Z,2.57
2022-10-03T14:51:19.038Z,3.50
2022-10-03T14:54:18.402Z,4.07
2022-10-03T14:56:47.755Z,4.77
2022-10-03T14:59:32.769Z,4.00
2022-10-03T15:02:20.486Z,3.23
2022-10-03T15:04:52.487Z,2.73
2022-10-03T15:07:36.252Z,3.30
2022-10-03T15:10:10.124Z,2.43
2022-10-03T15:12:41.231Z,2.70
2022-10-03T15:15:15.727Z,1.43
2022-10-03T15:17:53.367Z,2.70
2022-10-03T15:20:26.863Z,2.57
2022-10-03T15:22:57.505Z,2.03
2022-10-03T15:25:30.610Z,3.27
2022-10-03T15:27:59.137Z,3.07
2022-10-03T15:30:32.044Z,2.67
2022-10-03T15:33:15.794Z,3.40
2022-10-03T15:35:46.899Z,1.73
2022-10-03T15:38:27.407Z,3.77
2022-10-03T15:41:11.364Z,2.37
2022-10-03T15:43:56.927Z,3.27
2022-10-03T15:46:33.082Z,2.77
2022-10-03T15:49:24.662Z,1.70
2022-10-03T15:51:57.995Z,1.13
2022-10-03T15:54:29.952Z,3.27
2022-10-03T15:57:00.365Z,1.80
2022-10-03T15:59:35.321Z,1.30
2022-10-03T16:02:35.423Z,1.27
2022-10-03T16:05:16.765Z,2.10
2022-10-03T16:08:07.769Z,0.60
2022-10-03T16:10:40.592Z,1.70
2022-10-03T16:13:39.331Z,5.87
2022-10-03T16:16:26.365Z,1.43
2022-10-03T16:19:08.501Z,2.50
2022-10-03T16:22:07.264Z,2.50
2022-10-03T16:24:41.728Z,9.93
2022-10-03T16:27:13.968Z,1.97
2022-10-03T16:29:49.981Z,1.50
2022-10-03T16:32:22.633Z,1.10
2022-10-03T16:34:50.452Z,2.43
2022-10-03T16:37:29.841Z,3.73
2022-10-03T16:40:07.700Z,2.53
2022-10-03T16:42:45.318Z,2.57
2022-10-03T16:45:30.995Z,1.87
2022-10-03T16:48:19.660Z,1.37
2022-10-03T16:50:52.804Z,4.53
2022-10-03T16:53:22.258Z,2.50
2022-10-03T16:55:57.820Z,1.43
2022-10-03T16:58:30.377Z,2.57
2022-10-03T17:01:25.872Z,1.17
2022-10-03T17:04:12.268Z,1.63
2022-10-03T17:06:40.427Z,2.10
2022-10-03T17:09:35.496Z,2.20
2022-10-03T17:12:14.185Z,1.17
2022-10-03T17:14:42.466Z,1.87
2022-10-03T17:17:57.525Z,1.77
2022-10-03T17:20:48.373Z,1.40
2022-10-03T17:23:39.904Z,2.73
2022-10-03T17:26:33.244Z,1.37
2022-10-03T17:29:02.850Z,1.83
2022-10-03T17:31:34.532Z,1.30
2022-10-03T17:34:09.472Z,3.10
2022-10-03T17:37:05.534Z,3.70
2022-10-03T17:40:07.343Z,2.10
2022-10-03T17:42:55.001Z,3.20
2022-10-03T17:46:02.172Z,1.90
2022-10-03T17:48:46.186Z,2.77
2022-10-03T17:51:39.287Z,2.30
2022-10-03T17:54:19.494Z,2.27
2022-10-03T17:56:54.727Z,2.17
2022-10-03T17:59:32.491Z,2.37
2022-10-03T18:02:15.779Z,2.30
2022-10-03T18:04:46.052Z,2.00
2022-10-03T18:07:18.401Z,4.50
2022-10-03T18:09:54.485Z,5.23
2022-10-03T18:12:40.344Z,3.37
2022-10-03T18:15:52.248Z,2.93
2022-10-03T18:18:25.015Z,3.93
2022-10-03T18:21:00.833Z,3.47
2022-10-03T18:24:11.167Z,4.40
2022-10-03T18:26:44.063Z,4.80
2022-10-03T18:29:18.673Z,3.80
2022-10-03T18:31:52.384Z,4.30
2022-10-03T18:34:25.109Z,3.50
2022-10-03T18:36:55.086Z,3.90
2022-10-03T18:39:27.726Z,5.30
2022-10-03T18:41:58.694Z,9.63
2022-10-03T18:44:29.463Z,9.93
2022-10-03T18:47:07.114Z,9.23
2022-10-03T18:49:35.633Z,8.87
2022-10-03T18:52:20.815Z,6.87
2022-10-03T18:55:16.739Z,7.50
2022-10-03T18:58:13.834Z,7.30
2022-10-03T19:01:13.117Z,7.63
2022-10-03T19:03:54.198Z,6.03
2022-10-03T19:06:27.843Z,5.63
2022-10-03T19:09:15.889Z,7.57
2022-10-03T19:12:14.556Z,7.10
2022-10-03T19:15:01.270Z,6.83
2022-10-03T19:17:50.637Z,5.97
2022-10-03T19:20:31.280Z,5.90
2022-10-03T19:23:26.375Z,5.33
2022-10-03T19:25:57.223Z,6.83
2022-10-03T19:28:33.681Z,4.47
2022-10-03T19:31:17.532Z,8.13
2022-10-03T19:33:50.028Z,4.57
2022-10-03T19:36:22.428Z,4.93
2022-10-03T19:38:49.591Z,5.17
2022-10-03T19:41:38.145Z,5.30
2022-10-03T19:44:09.008Z,6.37
2022-10-03T19:47:00.141Z,5.30
2022-10-03T19:49:38.829Z,5.73
2022-10-03T19:52:42.011Z,4.77
2022-10-03T19:55:19.864Z,6.00
2022-10-03T19:58:13.904Z,4.93
2022-10-03T20:00:56.446Z,4.37
2022-10-03T20:03:32.347Z,5.50
2022-10-03T20:06:11.439Z,5.97
2022-10-03T20:08:52.823Z,5.40
2022-10-03T20:11:45.795Z,5.00
2022-10-03T20:14:23.628Z,4.37
2022-10-03T20:16:52.168Z,4.07
2022-10-03T20:20:01.694Z,5.43
2022-10-03T20:22:36.478Z,6.57
2022-10-03T20:25:07.598Z,6.57
2022-10-03T20:27:42.156Z,4.73
2022-10-03T20:30:35.674Z,5.87
2022-10-03T20:33:04.174Z,4.80
2022-10-03T20:35:42.043Z,5.17
2022-10-03T20:38:40.964Z,4.87
2022-10-03T20:41:20.568Z,4.73
2022-10-03T20:44:13.039Z,4.30
2022-10-03T20:47:00.273Z,4.30
2022-10-03T20:49:33.041Z,4.77
2022-10-03T20:52:07.528Z,3.83
2022-10-03T20:54:51.985Z,5.03
2022-10-03T20:57:47.718Z,5.00
2022-10-03T21:00:23.878Z,4.13
2022-10-03T21:03:07.425Z,7.60
2022-10-03T21:05:34.336Z,5.60
2022-10-03T21:08:04.337Z,6.20
2022-10-03T21:10:51.864Z,6.03
2022-10-03T21:13:36.889Z,4.50
2022-10-03T21:16:15.056Z,5.03
2022-10-03T21:18:46.127Z,3.07
2022-10-03T21:21:19.388Z,6.17
2022-10-03T21:24:11.208Z,3.83
2022-10-03T21:26:45.136Z,3.37
2022-10-03T21:29:26.572Z,2.67
2022-10-03T21:32:17.948Z,2.77
2022-10-03T21:35:00.823Z,2.73
2022-10-03T21:37:49.477Z,4.13
2022-10-03T21:40:40.818Z,3.03
2022-10-03T21:43:38.513Z,2.70
2022-10-03T21:46:31.057Z,3.67
2022-10-03T21:49:36.939Z,2.63
2022-10-03T21:52:29.687Z,5.03
2022-10-03T21:55:08.622Z,2.37
2022-10-03T21:57:54.501Z,3.33
2022-10-03T22:00:28.052Z,2.10
2022-10-03T22:03:00.918Z,3.27
2022-10-03T22:05:51.918Z,2.20
2022-10-03T22:08:30.427Z,2.63
2022-10-03T22:11:18.815Z,2.53
2022-10-03T22:13:57.953Z,2.50
2022-10-03T22:16:38.528Z,2.63
2022-10-03T22:19:21.508Z,2.80
2022-10-03T22:21:59.682Z,2.20
2022-10-03T22:24:40.280Z,2.50
2022-10-03T22:27:18.029Z,2.47
2022-10-03T22:30:01.521Z,1.60
2022-10-03T22:32:42.302Z,2.60
2022-10-03T22:35:17.909Z,2.57
2022-10-03T22:37:44.896Z,3.00
2022-10-03T22:40:13.071Z,2.73
2022-10-03T22:42:44.678Z,2.60
2022-10-03T22:45:12.937Z,2.60
2022-10-03T22:47:40.434Z,2.77
2022-10-03T22:50:12.896Z,3.07
2022-10-03T22:52:42.961Z,2.10
2022-10-03T22:55:13.968Z,2.63
2022-10-03T22:57:45.578Z,1.87
2022-10-03T23:00:20.246Z,3.40
2022-10-03T23:02:50.902Z,1.90
2022-10-03T23:05:46.330Z,1.50
2022-10-03T23:08:34.688Z,2.03
2022-10-03T23:11:24.379Z,1.50
2022-10-03T23:13:51.981Z,2.70
2022-10-03T23:16:40.725Z,1.40
2022-10-03T23:19:19.748Z,2.17
2022-10-03T23:21:48.965Z,1.90
2022-10-03T23:24:32.092Z,2.03
2022-10-03T23:27:22.547Z,1.83
2022-10-03T23:30:12.221Z,2.20
2022-10-03T23:32:48.249Z,1.50
2022-10-03T23:35:31.404Z,2.77
2022-10-03T23:38:00.031Z,1.60
2022-10-03T23:40:45.381Z,1.53
2022-10-03T23:43:35.895Z,2.00
2022-10-03T23:46:15.718Z,1.83
2022-10-03T23:48:56.246Z,1.50
2022-10-03T23:51:32.580Z,1.77
2022-10-03T23:54:05.162Z,1.60
2022-10-03T23:56:47.145Z,2.00
2022-10-03T23:59:14.113Z,2.00
